Time;durP1;ratioP1;P1;durP2;ratioP2;P2;SDS_P1;SDS_P2;PMS_P1;PMS_P2;Temp;Humidity;BMP_temperature;BMP_pressure;BME280_temperature;BME280_humidity;BME280_pressure;Samples;Min_cycle;Max_cycle;Signal;HPM_P1;HPM_P2
2024/01/20 00:00:14;;;;;;;5.68;5.15;;;16.60;49.30;;;;;;5073945;28;20198;-65
2024/01/20 00:02:39;;;;;;;6.60;5.63;;;16.50;49.10;;;;;;5071676;28;20176;-65
2024/01/20 00:05:05;;;;;;;6.75;5.97;;;16.60;49.10;;;;;;5073667;28;20178;-65
2024/01/20 00:07:31;;;;;;;6.13;5.53;;;16.50;49.30;;;;;;5073301;28;20181;-66
2024/01/20 00:09:57;;;;;;;6.40;5.80;;;16.50;49.20;;;;;;5073021;28;20181;-66
2024/01/20 00:12:22;;;;;;;6.60;5.45;;;16.50;49.20;;;;;;5073420;28;20545;-66
2024/01/20 00:14:48;;;;;;;6.47;5.78;;;16.50;49.20;;;;;;5073362;28;20628;-66
2024/01/20 00:17:14;;;;;;;7.18;6.13;;;16.50;49.30;;;;;;5072602;28;20217;-66
2024/01/20 00:19:39;;;;;;;7.00;5.82;;;16.40;49.30;;;;;;5073117;28;20640;-66
2024/01/20 00:22:04;;;;;;;6.28;5.43;;;16.40;49.20;;;;;;5073211;28;20210;-66
2024/01/20 00:24:30;;;;;;;7.07;6.10;;;16.40;49.20;;;;;;5072322;28;20221;-66
2024/01/20 00:26:56;;;;;;;8.18;6.07;;;16.40;49.10;;;;;;5073355;28;20320;-66
2024/01/20 00:29:21;;;;;;;6.60;5.93;;;16.40;49.20;;;;;;5072906;28;20643;-65
2024/01/20 00:31:47;;;;;;;7.00;6.30;;;16.30;49.20;;;;;;5072364;28;20604;-66
2024/01/20 00:34:12;;;;;;;6.93;6.05;;;16.30;49.30;;;;;;5073081;28;20563;-65
2024/01/20 00:36:38;;;;;;;7.63;5.90;;;16.30;49.40;;;;;;5072482;28;20206;-66
2024/01/20 00:39:04;;;;;;;7.30;6.55;;;16.30;49.50;;;;;;5072492;28;20254;-66
2024/01/20 00:41:30;;;;;;;7.65;6.90;;;16.30;49.20;;;;;;5072669;28;20171;-67
2024/01/20 00:43:55;;;;;;;7.25;6.50;;;16.20;49.30;;;;;;5072746;28;20174;-65
2024/01/20 00:46:21;;;;;;;7.22;6.40;;;16.30;49.40;;;;;;5071823;28;20182;-66
2024/01/20 00:48:46;;;;;;;8.35;6.72;;;16.20;49.40;;;;;;5072854;28;20201;-65
2024/01/20 00:51:12;;;;;;;7.50;6.70;;;16.20;49.40;;;;;;5072756;28;20579;-66
2024/01/20 00:53:38;;;;;;;7.35;6.18;;;16.20;49.40;;;;;;5071665;28;20218;-66
2024/01/20 00:56:03;;;;;;;7.53;6.15;;;16.20;49.30;;;;;;5072171;28;20241;-66
2024/01/20 00:58:29;;;;;;;7.57;6.78;;;16.20;49.20;;;;;;5071571;28;20251;-66
2024/01/20 01:00:54;;;;;;;8.85;6.70;;;16.10;49.20;;;;;;5072496;28;20178;-65
2024/01/20 01:03:20;;;;;;;6.60;5.95;;;16.20;49.20;;;;;;5072123;28;20190;-66
2024/01/20 01:05:46;;;;;;;7.68;6.60;;;16.10;49.10;;;;;;5071702;28;20269;-65
2024/01/20 01:08:11;;;;;;;9.68;6.85;;;16.10;49.30;;;;;;5072622;28;20174;-66
2024/01/20 01:10:39;;;;;;;7.28;6.53;;;16.10;49.40;;;;;;5072210;28;20174;-66
2024/01/20 01:13:05;;;;;;;7.93;6.90;;;16.10;49.50;;;;;;5071582;28;20174;-66
2024/01/20 01:15:32;;;;;;;8.63;6.72;;;16.10;49.20;;;;;;5071771;28;20191;-66
2024/01/20 01:17:57;;;;;;;8.77;7.15;;;16.10;49.30;;;;;;5072271;28;20189;-65
2024/01/20 01:20:23;;;;;;;7.95;6.97;;;16.00;49.30;;;;;;5071075;28;20178;-66
2024/01/20 01:22:50;;;;;;;8.75;7.43;;;16.00;49.20;;;;;;5072164;28;20308;-66
2024/01/20 01:25:16;;;;;;;7.82;6.88;;;16.00;49.20;;;;;;5072223;28;20243;-65
2024/01/20 01:27:42;;;;;;;8.45;7.20;;;16.00;49.10;;;;;;5071461;28;20232;-65
2024/01/20 01:30:08;;;;;;;9.02;6.75;;;16.00;49.20;;;;;;5072211;28;20181;-65
2024/01/20 01:32:33;;;;;;;8.35;7.50;;;16.00;49.20;;;;;;5071883;28;20182;-66
2024/01/20 01:34:59;;;;;;;8.88;7.75;;;16.00;49.10;;;;;;5071269;28;20538;-65
2024/01/20 01:37:24;;;;;;;8.25;7.40;;;16.00;49.10;;;;;;5071691;28;20687;-66
2024/01/20 01:39:53;;;;;;;7.78;6.85;;;16.00;49.30;;;;;;5072035;28;20162;-67
2024/01/20 01:42:18;;;;;;;7.97;6.88;;;15.90;49.30;;;;;;5070815;28;20182;-66
2024/01/20 01:44:44;;;;;;;8.57;7.63;;;15.90;49.30;;;;;;5072142;28;20178;-66
2024/01/20 01:47:09;;;;;;;8.60;7.63;;;15.90;49.20;;;;;;5072048;28;20637;-66
2024/01/20 01:49:35;;;;;;;9.75;7.82;;;15.90;49.20;;;;;;5069657;28;20297;-66
2024/01/20 01:52:00;;;;;;;7.55;6.75;;;15.90;49.30;;;;;;5071744;28;20261;-66
2024/01/20 01:54:26;;;;;;;8.90;7.38;;;15.90;49.30;;;;;;5070432;28;20256;-66
2024/01/20 01:56:51;;;;;;;9.13;7.32;;;15.90;49.20;;;;;;5070023;28;20221;-66
2024/01/20 01:59:18;;;;;;;7.60;6.82;;;15.90;49.20;;;;;;5070431;28;20557;-66
2024/01/20 02:01:43;;;;;;;9.68;7.78;;;15.90;49.20;;;;;;5071151;28;20257;-67
2024/01/20 02:04:09;;;;;;;8.32;7.35;;;15.80;49.20;;;;;;5071738;28;20269;-66
2024/01/20 02:06:34;;;;;;;9.23;7.47;;;15.90;49.20;;;;;;5071737;28;20694;-66
2024/01/20 02:09:00;;;;;;;8.20;6.75;;;15.90;49.20;;;;;;5074244;28;20235;-66
2024/01/20 02:11:26;;;;;;;8.85;7.13;;;15.80;49.30;;;;;;5075623;28;20189;-67
2024/01/20 02:13:51;;;;;;;8.57;7.20;;;15.80;49.30;;;;;;5075846;28;20175;-67
2024/01/20 02:16:17;;;;;;;8.43;7.22;;;15.80;49.40;;;;;;5056815;28;20696;-66
2024/01/20 02:18:42;;;;;;;8.43;7.43;;;15.80;49.20;;;;;;5075632;28;20266;-66
2024/01/20 02:21:08;;;;;;;7.70;6.90;;;15.80;49.20;;;;;;5075840;28;20261;-67
2024/01/20 02:23:36;;;;;;;9.25;7.35;;;15.70;49.30;;;;;;5074726;28;20182;-66
2024/01/20 02:26:02;;;;;;;9.95;8.05;;;15.80;49.20;;;;;;5057847;28;20625;-66
2024/01/20 02:28:27;;;;;;;10.43;7.72;;;15.80;49.30;;;;;;5075286;28;20181;-66
2024/01/20 02:30:53;;;;;;;8.10;7.18;;;15.70;49.10;;;;;;5074879;28;20175;-66
2024/01/20 02:33:18;;;;;;;9.23;7.68;;;15.70;49.20;;;;;;5075084;28;20170;-66
2024/01/20 02:35:44;;;;;;;8.95;7.20;;;15.70;49.20;;;;;;5075304;28;20934;-67
2024/01/20 02:38:09;;;;;;;9.30;7.95;;;15.70;49.20;;;;;;5074668;28;20320;-66
2024/01/20 02:40:35;;;;;;;9.15;7.80;;;15.70;49.10;;;;;;5075161;28;20255;-66
2024/01/20 02:43:00;;;;;;;10.05;7.72;;;15.70;49.10;;;;;;5075407;28;20652;-66
2024/01/20 02:45:26;;;;;;;8.23;7.40;;;15.70;49.20;;;;;;5074184;28;20538;-66
2024/01/20 02:47:54;;;;;;;8.77;7.38;;;15.70;49.20;;;;;;5074922;28;20524;-66
2024/01/20 02:50:20;;;;;;;7.72;6.93;;;15.70;49.40;;;;;;5074954;28;20186;-66
2024/01/20 02:52:45;;;;;;;9.38;7.82;;;15.60;49.30;;;;;;5074227;28;20607;-66
2024/01/20 02:55:11;;;;;;;9.38;7.32;;;15.60;49.20;;;;;;5075045;28;20179;-67
2024/01/20 02:57:36;;;;;;;9.10;7.65;;;15.60;49.20;;;;;;5074665;28;20256;-66
2024/01/20 03:00:04;;;;;;;8.13;6.80;;;15.60;49.20;;;;;;5074212;28;20170;-66
2024/01/20 03:02:29;;;;;;;8.32;7.13;;;15.60;49.20;;;;;;5074419;28;20213;-65
2024/01/20 03:04:58;;;;;;;8.25;6.85;;;15.60;49.20;;;;;;5074870;28;20202;-66
2024/01/20 03:07:24;;;;;;;9.10;7.25;;;15.60;49.30;;;;;;5074618;28;20221;-66
2024/01/20 03:09:49;;;;;;;7.80;6.85;;;15.60;49.20;;;;;;5074835;28;20206;-66
2024/01/20 03:12:15;;;;;;;8.25;7.40;;;15.60;49.20;;;;;;5073989;28;20265;-65
2024/01/20 03:14:40;;;;;;;8.55;7.18;;;15.50;49.20;;;;;;5074474;28;20171;-66
2024/01/20 03:17:06;;;;;;;8.13;7.32;;;15.50;49.30;;;;;;5074415;28;20209;-66
2024/01/20 03:19:31;;;;;;;8.50;7.20;;;15.60;49.30;;;;;;5073379;28;20162;-66
2024/01/20 03:21:57;;;;;;;7.45;6.75;;;15.60;49.30;;;;;;5074681;28;20174;-66
2024/01/20 03:24:22;;;;;;;7.45;6.75;;;15.50;49.20;;;;;;5074035;28;20676;-65
2024/01/20 03:26:49;;;;;;;9.07;7.28;;;15.50;49.20;;;;;;5073829;28;20269;-65
2024/01/20 03:29:14;;;;;;;9.60;7.60;;;15.50;49.20;;;;;;5074380;28;20257;-65
2024/01/20 03:31:40;;;;;;;8.68;7.38;;;15.50;49.40;;;;;;5073900;28;20273;-65
2024/01/20 03:34:05;;;;;;;8.27;7.07;;;15.50;49.40;;;;;;5073776;28;20262;-65
2024/01/20 03:36:31;;;;;;;7.47;6.68;;;15.50;49.30;;;;;;5074052;28;20210;-66
2024/01/20 03:38:56;;;;;;;8.88;7.18;;;15.50;49.50;;;;;;5074207;28;20166;-67
2024/01/20 03:41:22;;;;;;;8.43;7.00;;;15.40;49.40;;;;;;5073113;28;20166;-66
2024/01/20 03:43:47;;;;;;;8.32;7.40;;;15.40;49.40;;;;;;5074132;28;20175;-65
2024/01/20 03:46:16;;;;;;;7.82;7.03;;;15.40;49.30;;;;;;5073921;28;20616;-66
2024/01/20 03:48:42;;;;;;;7.78;6.93;;;15.40;49.30;;;;;;5073521;28;20178;-65
2024/01/20 03:51:08;;;;;;;8.38;7.07;;;15.40;49.20;;;;;;5074070;28;20182;-66
2024/01/20 03:53:34;;;;;;;8.63;6.80;;;15.40;49.40;;;;;;5073492;28;20222;-66
2024/01/20 03:56:01;;;;;;;8.68;7.22;;;15.40;49.40;;;;;;5073166;28;20204;-65
2024/01/20 03:58:26;;;;;;;8.80;7.10;;;15.30;49.20;;;;;;5073449;28;20193;-65
2024/01/20 04:00:52;;;;;;;9.38;7.70;;;15.40;49.30;;;;;;5073730;28;20178;-66
2024/01/20 04:03:18;;;;;;;8.15;6.95;;;15.30;49.40;;;;;;5072886;28;20262;-66
2024/01/20 04:05:43;;;;;;;7.97;6.85;;;15.30;49.30;;;;;;5073860;28;20320;-67
2024/01/20 04:08:09;;;;;;;8.02;7.13;;;15.30;49.40;;;;;;5073543;28;20637;-66
2024/01/20 04:10:35;;;;;;;8.30;6.95;;;15.30;49.40;;;;;;5072576;28;20175;-66
2024/01/20 04:13:00;;;;;;;7.88;6.68;;;15.30;49.30;;;;;;5073558;28;20257;-67
2024/01/20 04:15:26;;;;;;;7.25;6.55;;;15.30;49.30;;;;;;5072350;28;20640;-66
2024/01/20 04:17:52;;;;;;;8.07;6.63;;;15.30;49.40;;;;;;5073556;28;20185;-64
2024/01/20 04:20:18;;;;;;;7.50;6.32;;;15.30;49.50;;;;;;5073260;28;20245;-65
2024/01/20 04:22:43;;;;;;;7.82;6.43;;;15.30;49.40;;;;;;5072702;28;20228;-65
2024/01/20 04:25:09;;;;;;;8.70;7.25;;;15.20;49.20;;;;;;5073325;28;20232;-65
2024/01/20 04:27:40;;;;;;;7.07;6.38;;;15.20;49.40;;;;;;5072794;28;20671;-65
2024/01/20 04:30:09;;;;;;;7.72;6.32;;;15.20;49.30;;;;;;5071973;28;20175;-64
2024/01/20 04:32:35;;;;;;;8.45;6.80;;;15.20;49.30;;;;;;5072949;28;20203;-64
2024/01/20 04:35:00;;;;;;;7.43;6.57;;;15.20;49.40;;;;;;5073216;28;20291;-66
2024/01/20 04:37:26;;;;;;;7.43;6.72;;;15.20;49.50;;;;;;5071842;28;20218;-67
2024/01/20 04:39:51;;;;;;;9.43;7.03;;;15.20;49.30;;;;;;5073013;28;20167;-67
2024/01/20 04:42:17;;;;;;;8.52;7.00;;;15.20;49.30;;;;;;5072526;28;20547;-66
2024/01/20 04:44:42;;;;;;;7.95;6.97;;;15.20;49.50;;;;;;5072370;28;20263;-67
2024/01/20 04:47:08;;;;;;;7.18;6.47;;;15.20;49.50;;;;;;5072780;28;20676;-66
2024/01/20 04:49:33;;;;;;;8.65;7.00;;;15.20;49.50;;;;;;5072403;28;20179;-66
2024/01/20 04:52:01;;;;;;;7.57;6.63;;;15.10;49.40;;;;;;5071803;28;20186;-66
2024/01/20 04:54:28;;;;;;;8.10;6.65;;;15.10;49.30;;;;;;5072457;28;20240;-67
2024/01/20 04:56:53;;;;;;;7.78;6.65;;;15.10;49.50;;;;;;5072576;28;20301;-66
2024/01/20 04:59:19;;;;;;;6.75;6.05;;;15.10;49.50;;;;;;5071856;28;20257;-66
2024/01/20 05:01:48;;;;;;;7.70;6.90;;;15.10;49.50;;;;;;5072478;28;20277;-66
2024/01/20 05:04:14;;;;;;;8.93;7.20;;;15.10;49.40;;;;;;5072688;28;20174;-66
2024/01/20 05:06:39;;;;;;;8.45;7.03;;;15.10;49.50;;;;;;5071458;28;20170;-66
2024/01/20 05:09:05;;;;;;;7.65;6.85;;;15.00;49.40;;;;;;5072495;28;20174;-67
2024/01/20 05:11:31;;;;;;;7.55;6.43;;;15.00;49.40;;;;;;5071948;28;20552;-67
2024/01/20 05:13:56;;;;;;;8.15;7.25;;;15.10;49.50;;;;;;5072130;28;20257;-67
2024/01/20 05:16:22;;;;;;;7.05;6.32;;;15.00;49.50;;;;;;5072128;28;20568;-66
2024/01/20 05:18:48;;;;;;;7.50;6.68;;;15.00;49.40;;;;;;5071634;28;20662;-66
2024/01/20 05:21:14;;;;;;;8.20;6.68;;;15.10;49.50;;;;;;5072293;28;20645;-66
2024/01/20 05:23:40;;;;;;;7.68;6.55;;;15.00;49.40;;;;;;5072166;28;20197;-66
2024/01/20 05:26:06;;;;;;;7.75;6.70;;;15.00;49.40;;;;;;5071621;28;20181;-68
2024/01/20 05:28:31;;;;;;;8.40;6.93;;;15.00;49.40;;;;;;5072335;28;20272;-66
2024/01/20 05:30:57;;;;;;;7.70;6.75;;;15.00;49.40;;;;;;5072434;28;20227;-66
2024/01/20 05:33:22;;;;;;;7.45;6.65;;;15.00;49.40;;;;;;5071579;28;20182;-66
2024/01/20 05:35:48;;;;;;;7.75;6.63;;;15.00;49.40;;;;;;5072140;28;20202;-65
2024/01/20 05:38:14;;;;;;;7.30;6.55;;;15.00;49.40;;;;;;5072088;28;20533;-66
2024/01/20 05:40:40;;;;;;;7.25;6.22;;;15.00;49.40;;;;;;5071040;28;20186;-66
2024/01/20 05:43:06;;;;;;;8.10;6.75;;;15.00;49.40;;;;;;5072024;28;20186;-66
2024/01/20 05:45:31;;;;;;;7.22;6.47;;;15.00;49.40;;;;;;5071673;28;20187;-66
2024/01/20 05:47:57;;;;;;;7.55;6.70;;;14.90;49.40;;;;;;5071129;28;20185;-66
2024/01/20 05:50:23;;;;;;;7.07;6.38;;;14.90;49.50;;;;;;5071679;28;20170;-65
2024/01/20 05:52:49;;;;;;;7.25;6.55;;;14.90;49.50;;;;;;5071848;28;20242;-66
2024/01/20 05:55:15;;;;;;;7.55;6.47;;;14.90;49.40;;;;;;5071234;28;20174;-66
2024/01/20 05:57:40;;;;;;;7.07;6.38;;;14.90;49.40;;;;;;5071641;28;20560;-66
2024/01/20 06:00:06;;;;;;;7.20;6.47;;;14.90;49.50;;;;;;5071898;28;20185;-65
2024/01/20 06:02:32;;;;;;;7.75;6.72;;;14.90;49.60;;;;;;5070944;28;20213;-65
2024/01/20 06:04:57;;;;;;;6.65;5.97;;;14.80;49.40;;;;;;5071776;28;20664;-65
2024/01/20 06:07:23;;;;;;;7.55;6.75;;;14.90;49.60;;;;;;5071427;28;20214;-65
2024/01/20 06:09:48;;;;;;;8.35;6.82;;;14.80;49.40;;;;;;5071092;28;20261;-66
2024/01/20 06:12:14;;;;;;;6.40;5.80;;;14.80;49.50;;;;;;5072021;28;20166;-66
2024/01/20 06:14:40;;;;;;;7.10;6.40;;;14.90;49.60;;;;;;5071604;28;20170;-66
2024/01/20 06:17:05;;;;;;;7.10;6.35;;;14.80;49.50;;;;;;5070891;28;20210;-66
2024/01/20 06:19:31;;;;;;;7.20;6.25;;;14.80;49.60;;;;;;5071542;28;20183;-66
2024/01/20 06:21:56;;;;;;;7.53;5.90;;;14.80;49.70;;;;;;5071030;28;20224;-66
2024/01/20 06:24:22;;;;;;;7.47;6.43;;;14.80;49.80;;;;;;5071356;28;20177;-66
2024/01/20 06:26:47;;;;;;;6.50;5.82;;;14.90;49.80;;;;;;5071569;28;20174;-66
2024/01/20 06:29:13;;;;;;;6.88;6.13;;;14.90;49.70;;;;;;5071127;28;20828;-65
2024/01/20 06:31:38;;;;;;;6.82;6.13;;;14.90;49.70;;;;;;5071394;28;20254;-65
2024/01/20 06:34:04;;;;;;;7.00;6.30;;;14.90;49.60;;;;;;5071631;28;20548;-66
2024/01/20 06:36:29;;;;;;;6.43;5.30;;;14.90;49.60;;;;;;5070540;28;20206;-66
2024/01/20 06:38:55;;;;;;;6.70;5.95;;;14.90;49.60;;;;;;5071483;28;20170;-66
2024/01/20 06:41:20;;;;;;;8.07;6.53;;;14.90;49.60;;;;;;5071158;28;20265;-66
2024/01/20 06:43:46;;;;;;;6.65;5.50;;;14.90;49.60;;;;;;5071034;28;20174;-66
2024/01/20 06:46:11;;;;;;;7.60;6.25;;;14.80;49.60;;;;;;5071608;28;20269;-66
2024/01/20 06:48:37;;;;;;;6.53;5.85;;;14.80;49.60;;;;;;5071221;28;20175;-65
2024/01/20 06:51:03;;;;;;;6.68;5.97;;;14.90;49.80;;;;;;5070803;28;20171;-65
2024/01/20 06:53:29;;;;;;;6.47;5.80;;;14.90;49.60;;;;;;5071282;28;20305;-66
2024/01/20 06:55:55;;;;;;;7.22;6.35;;;15.00;49.60;;;;;;5074899;28;20264;-66
2024/01/20 06:58:21;;;;;;;5.95;5.35;;;15.10;49.40;;;;;;5074152;28;20178;-66
2024/01/20 07:00:46;;;;;;;6.03;5.32;;;15.20;49.20;;;;;;5074895;28;20182;-66
2024/01/20 07:03:12;;;;;;;5.45;4.75;;;15.30;49.20;;;;;;5074950;28;20182;-65
2024/01/20 07:05:37;;;;;;;5.38;4.88;;;15.40;49.70;;;;;;5073885;28;20732;-65
2024/01/20 07:08:04;;;;;;;5.63;5.13;;;15.60;49.00;;;;;;5074795;28;20182;-66
2024/01/20 07:10:29;;;;;;;6.32;5.60;;;15.80;48.80;;;;;;5074374;28;20536;-66
2024/01/20 07:12:55;;;;;;;5.43;4.93;;;16.00;48.60;;;;;;5074167;28;20178;-66
2024/01/20 07:15:21;;;;;;;4.95;4.47;;;16.10;48.40;;;;;;5074423;28;20657;-66
2024/01/20 07:17:46;;;;;;;4.75;4.35;;;16.30;48.20;;;;;;5074498;28;20253;-65
2024/01/20 07:20:12;;;;;;;6.97;4.68;;;16.40;48.00;;;;;;5073888;28;20575;-65
2024/01/20 07:22:37;;;;;;;5.47;4.50;;;16.50;47.90;;;;;;5074149;28;20625;-66
2024/01/20 07:25:04;;;;;;;5.80;4.53;;;16.50;47.80;;;;;;5074462;28;20200;-65
2024/01/20 07:27:30;;;;;;;6.18;4.68;;;16.60;47.70;;;;;;5073358;28;20185;-67
2024/01/20 07:29:56;;;;;;;5.10;4.55;;;16.60;47.60;;;;;;5074509;28;20178;-65
2024/01/20 07:32:21;;;;;;;4.55;4.15;;;16.70;47.70;;;;;;5073411;28;20220;-67
2024/01/20 07:34:47;;;;;;;5.40;4.90;;;16.70;47.60;;;;;;5074382;28;20181;-66
2024/01/20 07:37:12;;;;;;;5.03;4.53;;;16.60;47.70;;;;;;5074225;28;20320;-67
2024/01/20 07:39:38;;;;;;;5.90;4.88;;;16.70;47.70;;;;;;5073085;28;20171;-67
2024/01/20 07:42:03;;;;;;;5.13;4.20;;;16.60;47.70;;;;;;5074106;28;20209;-65
2024/01/20 07:44:29;;;;;;;5.70;4.65;;;16.60;47.70;;;;;;5073917;28;20174;-65
2024/01/20 07:46:56;;;;;;;4.82;4.32;;;16.60;48.40;;;;;;5073392;28;20253;-66
2024/01/20 07:49:22;;;;;;;4.82;4.18;;;16.60;47.80;;;;;;5073611;28;20178;-65
2024/01/20 07:51:47;;;;;;;5.00;4.50;;;16.60;47.90;;;;;;5073767;28;20279;-66
2024/01/20 07:54:16;;;;;;;4.90;4.20;;;16.60;47.80;;;;;;5072878;28;21047;-65
2024/01/20 07:56:42;;;;;;;5.65;4.38;;;16.70;47.90;;;;;;5073807;28;20202;-65
2024/01/20 07:59:07;;;;;;;4.68;4.07;;;16.70;47.90;;;;;;5073572;28;20175;-66
2024/01/20 08:01:33;;;;;;;3.88;3.47;;;16.70;47.90;;;;;;5072797;28;20220;-66
2024/01/20 08:03:58;;;;;;;4.97;4.47;;;16.70;47.70;;;;;;5073677;28;20201;-65
2024/01/20 08:06:24;;;;;;;4.25;3.85;;;16.80;47.60;;;;;;5072120;28;20273;-65
2024/01/20 08:08:49;;;;;;;4.15;3.78;;;16.80;47.70;;;;;;5072797;28;20254;-66
2024/01/20 08:11:15;;;;;;;4.72;4.15;;;16.80;47.70;;;;;;5073642;28;20697;-68
2024/01/20 08:13:42;;;;;;;4.78;4.30;;;16.80;47.70;;;;;;5073491;28;20201;-66
2024/01/20 08:16:07;;;;;;;4.32;3.90;;;16.80;47.70;;;;;;5072788;28;20202;-67
2024/01/20 08:18:33;;;;;;;5.55;4.20;;;16.80;47.70;;;;;;5073217;28;20170;-65
2024/01/20 08:20:58;;;;;;;4.07;3.70;;;16.80;47.70;;;;;;5073387;28;20194;-66
2024/01/20 08:23:24;;;;;;;4.20;3.80;;;16.80;47.70;;;;;;5072115;28;20210;-67
2024/01/20 08:25:50;;;;;;;4.55;4.15;;;16.80;47.70;;;;;;5073188;28;20539;-65
2024/01/20 08:28:15;;;;;;;4.38;3.78;;;16.90;47.60;;;;;;5072969;28;20166;-65
2024/01/20 08:30:41;;;;;;;3.75;3.45;;;16.90;47.60;;;;;;5072411;28;20170;-65
2024/01/20 08:33:06;;;;;;;4.25;3.85;;;16.90;47.50;;;;;;5073061;28;20553;-65
2024/01/20 08:35:32;;;;;;;3.92;3.47;;;16.90;47.50;;;;;;5072124;28;20656;-66
2024/01/20 08:37:58;;;;;;;4.45;3.78;;;16.90;47.50;;;;;;5072882;28;20673;-66
2024/01/20 08:40:23;;;;;;;4.10;3.55;;;16.90;47.50;;;;;;5072674;28;20711;-66
2024/01/20 08:42:49;;;;;;;4.45;3.90;;;16.90;47.40;;;;;;5072271;28;20236;-66
2024/01/20 08:45:14;;;;;;;4.38;3.97;;;16.90;48.10;;;;;;5073099;28;20212;-66
2024/01/20 08:47:40;;;;;;;4.85;3.85;;;16.90;47.50;;;;;;5072651;28;20177;-65
2024/01/20 08:50:05;;;;;;;4.57;4.18;;;17.00;47.50;;;;;;5072182;28;20177;-65
2024/01/20 08:52:31;;;;;;;4.63;4.03;;;16.90;47.40;;;;;;5072576;28;20275;-67
2024/01/20 08:54:57;;;;;;;3.95;3.50;;;16.90;47.50;;;;;;5072857;28;20186;-66
2024/01/20 08:57:23;;;;;;;4.10;3.70;;;17.00;47.50;;;;;;5071693;28;20624;-65
2024/01/20 08:59:48;;;;;;;3.97;3.58;;;17.00;47.50;;;;;;5072646;28;20657;-66
2024/01/20 09:02:14;;;;;;;3.72;3.25;;;17.00;47.50;;;;;;5072480;28;20188;-65
2024/01/20 09:04:39;;;;;;;3.83;3.38;;;17.00;47.50;;;;;;5071441;28;20651;-65
2024/01/20 09:07:05;;;;;;;3.83;3.35;;;17.00;47.50;;;;;;5072353;28;20227;-66
2024/01/20 09:09:30;;;;;;;4.55;3.65;;;17.00;47.50;;;;;;5072225;28;20170;-66
2024/01/20 09:11:56;;;;;;;3.60;3.30;;;17.00;47.50;;;;;;5071832;28;20645;-66
2024/01/20 09:14:21;;;;;;;3.35;3.05;;;17.00;47.50;;;;;;5072195;28;20177;-66
2024/01/20 09:16:50;;;;;;;3.63;3.33;;;17.00;47.60;;;;;;5071996;28;20567;-66
2024/01/20 09:19:15;;;;;;;3.50;3.20;;;17.00;47.50;;;;;;5071452;28;20166;-67
2024/01/20 09:21:44;;;;;;;3.60;3.30;;;16.90;47.50;;;;;;5072030;28;20548;-66
2024/01/20 09:24:10;;;;;;;4.03;3.20;;;17.00;47.50;;;;;;5072131;28;20539;-66
2024/01/20 09:26:35;;;;;;;3.72;3.40;;;17.00;47.50;;;;;;5071139;28;20178;-65
2024/01/20 09:29:01;;;;;;;3.50;3.20;;;17.00;48.30;;;;;;5072067;28;20181;-65
2024/01/20 09:31:26;;;;;;;3.95;3.42;;;17.00;47.50;;;;;;5071915;28;20170;-66
2024/01/20 09:33:52;;;;;;;3.13;2.83;;;17.00;47.60;;;;;;5071441;28;20174;-65
2024/01/20 09:36:18;;;;;;;3.92;3.13;;;17.00;47.50;;;;;;5072206;28;20625;-66
2024/01/20 09:38:43;;;;;;;3.53;3.22;;;17.00;47.50;;;;;;5072267;28;20254;-66
2024/01/20 09:41:09;;;;;;;3.65;3.30;;;17.00;47.50;;;;;;5071419;28;20718;-66
2024/01/20 09:43:39;;;;;;;3.30;2.95;;;16.90;47.60;;;;;;5070514;28;20178;-66
2024/01/20 09:46:05;;;;;;;4.85;3.88;;;16.90;47.60;;;;;;5070214;28;20180;-66
2024/01/20 09:48:31;;;;;;;3.55;3.22;;;16.90;47.60;;;;;;5070370;28;20257;-66
2024/01/20 09:50:57;;;;;;;4.32;3.38;;;16.90;47.70;;;;;;5072222;28;20178;-66
2024/01/20 09:53:23;;;;;;;3.50;3.20;;;16.90;47.70;;;;;;5070816;28;20238;-65
2024/01/20 09:55:48;;;;;;;3.67;3.38;;;16.90;47.70;;;;;;5054091;28;20547;-66
2024/01/20 09:58:15;;;;;;;3.08;2.78;;;16.90;47.80;;;;;;5070769;28;20265;-65
2024/01/20 10:00:41;;;;;;;2.90;2.70;;;16.90;47.80;;;;;;5069927;28;20182;-66
2024/01/20 10:03:08;;;;;;;3.08;2.88;;;16.90;47.80;;;;;;5071790;28;20178;-65
2024/01/20 10:05:33;;;;;;;3.33;3.03;;;16.90;47.80;;;;;;5071713;28;20178;-66
2024/01/20 10:07:59;;;;;;;4.05;3.50;;;17.00;47.80;;;;;;5070129;28;20177;-66
2024/01/20 10:10:25;;;;;;;3.33;2.90;;;16.90;47.80;;;;;;5071593;28;20529;-66
2024/01/20 10:12:51;;;;;;;3.63;3.00;;;16.90;47.80;;;;;;5071755;28;20196;-66
2024/01/20 10:15:21;;;;;;;3.35;3.05;;;16.90;47.80;;;;;;5070857;28;20185;-66
2024/01/20 10:17:47;;;;;;;3.53;3.22;;;16.90;47.80;;;;;;5071549;28;20248;-66
2024/01/20 10:20:19;;;;;;;3.45;3.15;;;16.90;47.80;;;;;;5071888;28;20183;-66
2024/01/20 10:22:45;;;;;;;3.15;2.83;;;16.90;47.80;;;;;;5071120;28;20182;-66
2024/01/20 10:25:17;;;;;;;3.50;3.20;;;16.90;47.80;;;;;;5071692;28;20212;-65
2024/01/20 10:27:43;;;;;;;2.80;2.60;;;16.90;47.80;;;;;;5071765;28;20220;-66
2024/01/20 10:30:09;;;;;;;3.47;3.00;;;16.80;47.90;;;;;;5073942;28;20170;-65
2024/01/20 10:32:34;;;;;;;3.85;3.30;;;16.80;48.70;;;;;;5075006;28;20213;-65
2024/01/20 10:35:00;;;;;;;3.53;3.22;;;16.70;48.10;;;;;;5075587;28;20254;-66
2024/01/20 10:37:26;;;;;;;3.60;3.30;;;16.60;48.20;;;;;;5074373;28;20621;-66
2024/01/20 10:39:51;;;;;;;3.40;3.10;;;16.60;48.20;;;;;;5057554;28;20166;-66
2024/01/20 10:42:17;;;;;;;3.65;3.35;;;16.60;48.20;;;;;;5056402;28;20561;-66
2024/01/20 10:45:04;;;;;;;3.38;3.03;;;16.60;48.30;;;;;;5057361;28;20177;-66
2024/01/20 10:47:34;;;;;;;3.25;2.95;;;16.60;48.30;;;;;;5074058;28;20171;-65
2024/01/20 10:50:01;;;;;;;3.22;2.92;;;16.60;48.30;;;;;;5073425;28;20202;-65
2024/01/20 10:52:26;;;;;;;3.45;3.10;;;16.60;48.20;;;;;;5057223;28;20261;-66
2024/01/20 10:54:52;;;;;;;3.40;3.10;;;16.60;48.20;;;;;;5075149;28;20205;-66
2024/01/20 10:57:17;;;;;;;3.45;3.15;;;16.60;48.20;;;;;;5074056;28;20623;-66
2024/01/20 10:59:46;;;;;;;3.20;2.80;;;16.70;48.20;;;;;;5073634;28;20736;-66
2024/01/20 11:02:11;;;;;;;3.50;3.20;;;16.60;48.20;;;;;;5074684;28;20634;-66
2024/01/20 11:04:39;;;;;;;3.95;3.13;;;16.60;48.10;;;;;;5073784;28;20175;-66
2024/01/20 11:07:07;;;;;;;3.65;3.10;;;16.60;48.20;;;;;;5074827;28;20186;-66
2024/01/20 11:09:33;;;;;;;3.47;3.17;;;16.50;48.40;;;;;;5074351;28;20174;-66
2024/01/20 11:12:03;;;;;;;3.50;3.20;;;16.40;48.50;;;;;;5074035;28;20172;-67
2024/01/20 11:14:29;;;;;;;4.28;3.20;;;16.40;48.60;;;;;;5074565;28;20182;-66
2024/01/20 11:16:56;;;;;;;3.47;3.17;;;16.40;48.70;;;;;;5074684;28;20218;-66
2024/01/20 11:19:22;;;;;;;3.25;2.90;;;16.40;48.70;;;;;;5073634;28;20175;-66
2024/01/20 11:21:47;;;;;;;3.10;2.80;;;16.30;48.60;;;;;;5074531;28;20656;-66
2024/01/20 11:24:14;;;;;;;3.30;3.00;;;16.40;48.60;;;;;;5074436;28;20174;-66
2024/01/20 11:26:40;;;;;;;4.47;3.25;;;16.40;48.50;;;;;;5072157;28;20585;-65
2024/01/20 11:29:07;;;;;;;3.05;2.80;;;16.40;48.40;;;;;;5074628;28;20636;-66
2024/01/20 11:31:33;;;;;;;3.58;3.20;;;16.40;48.40;;;;;;5073290;28;20516;-66
2024/01/20 11:34:02;;;;;;;3.35;3.05;;;16.40;48.40;;;;;;5074450;28;20174;-65
2024/01/20 11:36:32;;;;;;;3.75;3.05;;;16.40;48.40;;;;;;5073895;28;20211;-66
2024/01/20 11:38:58;;;;;;;3.05;2.75;;;16.50;48.40;;;;;;5073445;28;20174;-66
2024/01/20 11:41:24;;;;;;;3.28;2.97;;;16.50;48.30;;;;;;5072711;28;20181;-66
2024/01/20 11:43:49;;;;;;;3.97;3.25;;;16.50;48.40;;;;;;5074249;28;20187;-66
2024/01/20 11:46:15;;;;;;;3.83;3.42;;;16.40;48.50;;;;;;5073503;28;20167;-65
2024/01/20 11:48:42;;;;;;;3.78;2.92;;;16.40;48.70;;;;;;5074002;28;20170;-65
2024/01/20 11:51:08;;;;;;;3.38;3.00;;;16.40;48.70;;;;;;5074076;28;20178;-65
2024/01/20 11:53:33;;;;;;;3.20;2.90;;;16.30;48.80;;;;;;5072854;28;20241;-66
2024/01/20 11:55:59;;;;;;;3.50;3.20;;;16.30;48.80;;;;;;5073743;28;20174;-66
2024/01/20 11:58:25;;;;;;;4.68;3.20;;;16.30;48.80;;;;;;5073625;28;20304;-65
2024/01/20 12:00:51;;;;;;;4.97;3.63;;;16.30;48.70;;;;;;5073231;28;20174;-65
2024/01/20 12:03:20;;;;;;;3.17;2.88;;;16.30;48.80;;;;;;5073357;28;20655;-65
2024/01/20 12:05:46;;;;;;;3.25;2.95;;;16.40;48.70;;;;;;5073722;28;20170;-66
2024/01/20 12:08:11;;;;;;;3.35;3.05;;;16.40;48.60;;;;;;5072854;28;20236;-66
2024/01/20 12:10:37;;;;;;;2.90;2.70;;;16.50;48.50;;;;;;5073378;28;20254;-66
2024/01/20 12:13:03;;;;;;;3.33;3.03;;;16.50;48.40;;;;;;5073724;28;20174;-66
2024/01/20 12:15:40;;;;;;;3.25;2.95;;;16.50;48.40;;;;;;5072646;28;20178;-66
2024/01/20 12:18:06;;;;;;;4.35;3.13;;;16.60;48.40;;;;;;5072876;28;20695;-65
2024/01/20 12:20:38;;;;;;;3.40;2.80;;;16.60;48.30;;;;;;5073022;28;20265;-65
2024/01/20 12:23:03;;;;;;;2.80;2.55;;;16.60;48.30;;;;;;5073261;28;20181;-66
2024/01/20 12:25:29;;;;;;;3.55;3.22;;;16.50;48.40;;;;;;5073175;28;20612;-66
2024/01/20 12:27:56;;;;;;;3.10;2.80;;;16.50;48.60;;;;;;5072713;28;20173;-65
2024/01/20 12:30:22;;;;;;;3.25;2.95;;;16.50;48.60;;;;;;5072961;28;20186;-65
2024/01/20 12:32:48;;;;;;;3.05;2.85;;;16.50;48.70;;;;;;5073218;28;20261;-65
2024/01/20 12:35:13;;;;;;;3.88;2.67;;;16.40;48.70;;;;;;5072599;28;20228;-66
2024/01/20 12:37:39;;;;;;;3.35;3.08;;;16.40;48.70;;;;;;5072637;28;20206;-67
2024/01/20 12:40:08;;;;;;;3.13;2.80;;;16.40;48.70;;;;;;5073181;28;20171;-66